createdAt,value
2018-01-25T00:01:33.144Z,86.90
2018-01-25T00:04:00.657Z,86.80
2018-01-25T00:06:28.201Z,86.50
2018-01-25T00:08:55.762Z,86.30
2018-01-25T00:11:23.341Z,86.40
2018-01-25T00:13:51.651Z,86.20
2018-01-25T00:16:19.290Z,86.00
2018-01-25T00:18:46.810Z,86.00
2018-01-25T00:21:14.341Z,86.00
2018-01-25T00:23:41.952Z,86.00
2018-01-25T00:26:09.449Z,86.00
2018-01-25T00:28:36.946Z,85.90
2018-01-25T00:31:04.455Z,85.80
2018-01-25T00:33:31.991Z,85.40
2018-01-25T00:35:59.831Z,85.20
2018-01-25T00:38:27.361Z,84.80
2018-01-25T00:40:55.642Z,84.40
2018-01-25T00:43:23.941Z,84.60
2018-01-25T00:45:51.456Z,84.50
2018-01-25T00:48:18.954Z,84.60
2018-01-25T00:50:46.521Z,84.40
2018-01-25T00:53:14.102Z,84.40
2018-01-25T00:55:42.174Z,84.60
2018-01-25T00:58:10.065Z,84.50
2018-01-25T01:00:37.908Z,84.60
2018-01-25T01:03:05.461Z,84.40
2018-01-25T01:05:32.941Z,84.50
2018-01-25T01:08:00.455Z,84.30
2018-01-25T01:10:28.705Z,84.00
2018-01-25T01:12:56.207Z,84.00
2018-01-25T01:15:23.729Z,84.00
2018-01-25T01:17:51.241Z,83.80
2018-01-25T01:20:18.747Z,83.90
2018-01-25T01:22:47.034Z,84.00
2018-01-25T01:25:15.420Z,84.00
2018-01-25T01:27:42.922Z,84.20
2018-01-25T01:30:10.431Z,84.00
2018-01-25T01:32:37.922Z,83.60
2018-01-25T01:35:05.432Z,83.40
2018-01-25T01:37:32.910Z,83.00
2018-01-25T01:40:00.409Z,83.00
2018-01-25T01:42:27.910Z,82.70
2018-01-25T01:44:56.181Z,82.60
2018-01-25T01:47:24.451Z,82.30
2018-01-25T01:49:52.737Z,82.90
2018-01-25T01:52:21.002Z,82.10
2018-01-25T01:54:48.512Z,82.10
2018-01-25T01:57:16.000Z,82.30
2018-01-25T01:59:43.610Z,82.00
2018-01-25T02:02:11.103Z,81.70
2018-01-25T02:04:38.573Z,81.50
2018-01-25T02:07:06.091Z,81.50
2018-01-25T02:09:33.632Z,81.20
2018-01-25T02:12:01.147Z,80.90
2018-01-25T02:14:29.409Z,80.20
2018-01-25T02:16:57.150Z,80.10
2018-01-25T02:19:24.626Z,79.60
2018-01-25T02:21:52.369Z,79.70
2018-01-25T02:24:19.864Z,79.90
2018-01-25T02:26:47.362Z,80.20
2018-01-25T02:29:14.926Z,80.10
2018-01-25T02:31:42.405Z,80.20
2018-01-25T02:34:09.920Z,80.00
2018-01-25T02:36:37.394Z,80.20
2018-01-25T02:39:04.907Z,80.40
2018-01-25T02:41:32.389Z,80.20
2018-01-25T02:43:59.937Z,80.80
2018-01-25T02:46:27.453Z,80.30
2018-01-25T02:48:55.072Z,80.00
2018-01-25T02:51:22.552Z,80.50
2018-01-25T02:53:50.846Z,79.90
2018-01-25T02:56:18.341Z,79.80
2018-01-25T02:58:46.206Z,79.60
2018-01-25T03:01:14.486Z,79.30
2018-01-25T03:03:42.377Z,79.30
2018-01-25T03:06:10.000Z,78.80
2018-01-25T03:08:37.497Z,78.60
2018-01-25T03:11:05.770Z,78.20
2018-01-25T03:13:34.034Z,77.70
2018-01-25T03:16:02.334Z,76.70
2018-01-25T03:18:29.826Z,77.00
2018-01-25T03:20:57.322Z,76.80
2018-01-25T03:23:24.933Z,76.70
2018-01-25T03:25:52.483Z,76.30
2018-01-25T03:28:19.974Z,76.10
2018-01-25T03:30:47.495Z,75.70
2018-01-25T03:33:14.990Z,75.90
2018-01-25T03:35:42.996Z,75.70
2018-01-25T03:38:11.274Z,75.40
2018-01-25T03:40:39.546Z,75.50
2018-01-25T03:43:07.078Z,75.50
2018-01-25T03:45:35.468Z,75.60
2018-01-25T03:48:03.015Z,75.30
2018-01-25T03:50:30.497Z,75.30
2018-01-25T03:52:58.781Z,74.80
2018-01-25T03:55:27.059Z,75.10
2018-01-25T03:57:55.342Z,75.10
2018-01-25T04:00:23.682Z,75.00
2018-01-25T04:02:51.380Z,74.90
2018-01-25T04:05:18.873Z,74.70
2018-01-25T04:07:46.388Z,74.80
2018-01-25T04:10:13.930Z,74.80
2018-01-25T04:12:41.442Z,76.20
2018-01-25T04:15:08.962Z,75.30
2018-01-25T04:17:36.664Z,75.20
2018-01-25T04:20:04.473Z,75.20
2018-01-25T04:22:31.962Z,75.70
2018-01-25T04:24:59.516Z,75.60
2018-01-25T04:27:27.012Z,75.80
2018-01-25T04:29:54.493Z,75.90
2018-01-25T04:32:22.216Z,75.70
2018-01-25T04:37:23.794Z,75.20
2018-01-25T04:39:51.329Z,75.30
2018-01-25T04:42:18.972Z,74.90
2018-01-25T04:44:47.384Z,75.10
2018-01-25T04:47:14.883Z,75.00
2018-01-25T04:49:42.369Z,75.20
2018-01-25T04:52:10.641Z,75.10
2018-01-25T04:54:38.914Z,75.00
2018-01-25T04:57:07.200Z,74.70
2018-01-25T04:59:35.515Z,75.00
2018-01-25T05:02:02.986Z,75.00
2018-01-25T05:04:30.514Z,75.10
2018-01-25T05:06:58.022Z,75.00
2018-01-25T05:09:25.605Z,75.20
2018-01-25T05:11:53.136Z,75.50
2018-01-25T05:14:20.622Z,75.90
2018-01-25T05:17:03.984Z,76.00
2018-01-25T05:19:31.487Z,76.20
2018-01-25T05:21:59.000Z,76.30
2018-01-25T05:24:26.480Z,76.70
2018-01-25T05:26:53.981Z,77.10
2018-01-25T05:29:21.519Z,77.30
2018-01-25T05:31:49.780Z,78.10
2018-01-25T05:34:17.611Z,78.10
2018-01-25T05:36:45.094Z,78.50
2018-01-25T05:39:12.702Z,79.10
2018-01-25T05:41:40.192Z,79.00
2018-01-25T05:44:07.699Z,79.30
2018-01-25T05:46:36.348Z,79.70
2018-01-25T05:49:03.874Z,80.50
2018-01-25T05:51:31.406Z,80.40
2018-01-25T05:53:58.896Z,79.90
2018-01-25T05:56:26.458Z,79.70
2018-01-25T05:58:53.976Z,80.00
2018-01-25T06:01:21.484Z,80.00
2018-01-25T06:03:49.411Z,80.20
2018-01-25T06:06:17.676Z,79.10
2018-01-25T06:08:45.179Z,79.10
2018-01-25T06:11:12.692Z,78.90
2018-01-25T06:13:40.198Z,79.10
2018-01-25T06:16:07.934Z,78.70
2018-01-25T06:18:36.240Z,78.60
2018-01-25T06:21:03.758Z,78.60
2018-01-25T06:23:32.090Z,79.00
2018-01-25T06:25:59.705Z,79.00
2018-01-25T06:28:27.728Z,79.10
2018-01-25T06:30:55.507Z,79.00
2018-01-25T06:33:23.217Z,79.10
2018-01-25T06:35:51.466Z,79.40
2018-01-25T06:38:19.765Z,79.50
2018-01-25T06:40:47.301Z,79.60
2018-01-25T06:43:15.926Z,79.10
2018-01-25T06:45:43.461Z,79.10
2018-01-25T06:48:10.965Z,79.10
2018-01-25T06:50:38.468Z,79.00
2018-01-25T06:53:06.002Z,79.70
2018-01-25T06:55:33.493Z,78.40
2018-01-25T06:58:01.179Z,78.30
2018-01-25T07:00:28.710Z,78.10
2018-01-25T07:02:56.222Z,77.80
2018-01-25T07:05:23.721Z,78.00
2018-01-25T07:07:51.979Z,77.60
2018-01-25T07:10:20.246Z,77.50
2018-01-25T07:12:47.794Z,77.40
2018-01-25T07:15:15.324Z,77.20
2018-01-25T07:17:42.845Z,76.80
2018-01-25T07:20:11.109Z,76.70
2018-01-25T07:22:39.451Z,76.50
2018-01-25T07:25:06.955Z,76.50
2018-01-25T07:27:34.446Z,76.60
2018-01-25T07:30:01.981Z,76.10
2018-01-25T07:32:29.794Z,75.40
2018-01-25T07:35:01.792Z,75.10
2018-01-25T07:37:31.471Z,74.40
2018-01-25T07:39:58.983Z,74.40
2018-01-25T07:42:26.524Z,74.00
2018-01-25T07:44:54.054Z,73.70
2018-01-25T07:47:21.648Z,72.80
2018-01-25T07:49:49.220Z,72.40
2018-01-25T07:52:16.711Z,72.30
2018-01-25T07:54:44.238Z,71.90
2018-01-25T07:57:17.262Z,71.50
2018-01-25T07:59:44.830Z,70.70
2018-01-25T08:02:12.404Z,70.50
2018-01-25T08:04:40.011Z,70.30
2018-01-25T08:07:07.702Z,69.80
2018-01-25T08:09:35.371Z,69.50
2018-01-25T08:12:02.921Z,68.70
2018-01-25T08:14:30.402Z,67.10
2018-01-25T08:16:57.899Z,65.80
2018-01-25T08:19:26.303Z,63.90
2018-01-25T08:21:54.169Z,63.00
2018-01-25T08:24:22.535Z,58.40
2018-01-25T08:26:50.063Z,58.30
2018-01-25T08:29:18.017Z,56.50
2018-01-25T08:31:45.523Z,54.80
2018-01-25T08:34:13.015Z,52.40
2018-01-25T08:36:40.643Z,51.30
2018-01-25T08:39:08.144Z,49.00
2018-01-25T08:41:35.647Z,46.70
2018-01-25T08:44:03.947Z,44.30
2018-01-25T08:46:32.321Z,44.60
2018-01-25T08:49:00.674Z,44.70
2018-01-25T08:51:28.158Z,44.80
2018-01-25T08:53:55.658Z,43.70
2018-01-25T08:56:23.164Z,42.70
2018-01-25T08:58:51.800Z,40.80
2018-01-25T09:01:19.308Z,40.80
2018-01-25T09:03:47.022Z,38.70
2018-01-25T09:06:14.526Z,38.70
2018-01-25T09:08:42.795Z,37.30
2018-01-25T09:11:11.053Z,35.80
2018-01-25T09:13:38.601Z,35.70
2018-01-25T09:16:06.094Z,36.10
2018-01-25T09:18:33.609Z,35.20
2018-01-25T09:21:01.099Z,36.60
2018-01-25T09:23:28.694Z,38.50
2018-01-25T09:25:56.232Z,39.40
2018-01-25T09:28:24.499Z,40.40
2018-01-25T09:30:53.062Z,38.70
2018-01-25T09:33:20.779Z,38.60
2018-01-25T09:35:48.293Z,37.40
2018-01-25T09:38:15.816Z,35.90
2018-01-25T09:40:43.322Z,34.50
2018-01-25T09:43:11.598Z,32.90
2018-01-25T09:45:39.886Z,31.10
2018-01-25T09:48:07.405Z,31.10
2018-01-25T09:50:35.698Z,28.00
2018-01-25T09:53:03.208Z,28.00
2018-01-25T09:55:30.828Z,27.80
2018-01-25T09:57:58.528Z,29.60
2018-01-25T10:00:26.182Z,29.50
2018-01-25T10:02:53.697Z,29.60
2018-01-25T10:05:21.373Z,29.80
2018-01-25T10:07:49.065Z,30.00
2018-01-25T10:10:16.628Z,30.00
2018-01-25T10:12:44.121Z,28.90
2018-01-25T10:15:13.116Z,28.30
2018-01-25T10:17:40.634Z,28.30
2018-01-25T10:20:08.120Z,27.90
2018-01-25T10:22:35.812Z,27.70
2018-01-25T10:25:03.440Z,28.80
2018-01-25T10:27:30.943Z,28.40
2018-01-25T10:29:58.519Z,28.20
2018-01-25T10:32:26.119Z,27.80
2018-01-25T10:34:53.681Z,27.90
2018-01-25T10:37:21.581Z,27.90
2018-01-25T10:39:49.875Z,27.10
2018-01-25T10:42:17.421Z,27.10
2018-01-25T10:44:45.738Z,27.40
2018-01-25T10:47:13.370Z,27.40
2018-01-25T10:49:40.899Z,27.80
2018-01-25T10:52:08.410Z,27.70
2018-01-25T10:54:35.956Z,28.40
2018-01-25T10:57:03.479Z,29.50
2018-01-25T10:59:31.043Z,28.40
2018-01-25T11:02:05.702Z,28.20
2018-01-25T11:04:33.265Z,28.10
2018-01-25T11:07:00.793Z,29.00
2018-01-25T11:09:29.182Z,28.60
2018-01-25T11:11:56.840Z,28.60
2018-01-25T11:14:25.094Z,29.10
2018-01-25T11:16:52.632Z,29.00
2018-01-25T11:19:20.130Z,30.10
2018-01-25T11:21:48.399Z,29.10
2018-01-25T11:24:16.682Z,29.90
2018-01-25T11:26:44.955Z,29.50
2018-01-25T11:29:12.448Z,29.60
2018-01-25T11:31:40.000Z,30.10
2018-01-25T11:34:07.665Z,31.20
2018-01-25T11:36:36.043Z,31.90
2018-01-25T11:39:03.560Z,31.90
2018-01-25T11:41:31.846Z,34.00
2018-01-25T11:44:00.116Z,33.40
2018-01-25T11:46:27.620Z,33.30
2018-01-25T11:48:55.119Z,34.50
2018-01-25T11:51:22.607Z,34.60
2018-01-25T11:53:50.159Z,35.20
2018-01-25T11:56:17.640Z,36.00
2018-01-25T11:58:45.178Z,36.10
2018-01-25T12:01:12.669Z,36.20
2018-01-25T12:03:40.215Z,36.80
2018-01-25T12:06:07.713Z,36.60
2018-01-25T12:08:35.215Z,37.30
2018-01-25T12:11:02.706Z,37.70
2018-01-25T12:13:30.559Z,39.40
2018-01-25T12:15:58.055Z,38.60
2018-01-25T12:18:25.671Z,40.00
2018-01-25T12:20:53.178Z,38.70
2018-01-25T12:23:20.772Z,39.30
2018-01-25T12:25:48.270Z,37.50
2018-01-25T12:28:15.774Z,38.10
2018-01-25T12:30:43.673Z,38.20
2018-01-25T12:33:11.330Z,37.80
2018-01-25T12:35:38.982Z,37.40
2018-01-25T12:38:06.630Z,36.90
2018-01-25T12:40:34.169Z,37.20
2018-01-25T12:43:01.674Z,38.90
2018-01-25T12:45:29.217Z,37.40
2018-01-25T12:47:56.787Z,39.60
2018-01-25T12:50:24.472Z,38.50
2018-01-25T12:52:52.121Z,37.70
2018-01-25T12:55:19.913Z,37.70
2018-01-25T12:57:47.422Z,36.30
2018-01-25T13:00:14.893Z,36.80
2018-01-25T13:02:42.409Z,35.70
2018-01-25T13:05:10.116Z,37.20
2018-01-25T13:07:37.779Z,37.30
2018-01-25T13:10:05.496Z,40.40
2018-01-25T13:12:33.002Z,41.10
2018-01-25T13:15:00.500Z,42.10
2018-01-25T13:17:28.054Z,40.70
2018-01-25T13:19:55.550Z,40.90
2018-01-25T13:22:23.051Z,41.10
2018-01-25T13:24:50.565Z,41.10
2018-01-25T13:27:18.830Z,40.70
2018-01-25T13:29:47.210Z,42.30
2018-01-25T13:32:19.515Z,42.30
2018-01-25T13:34:47.025Z,41.80
2018-01-25T13:37:14.533Z,41.50
2018-01-25T13:39:42.047Z,41.60
2018-01-25T13:42:10.339Z,39.60
2018-01-25T13:44:39.758Z,39.80
2018-01-25T13:47:07.243Z,39.80
2018-01-25T13:49:34.781Z,39.70
2018-01-25T13:52:02.302Z,41.00
2018-01-25T13:54:29.875Z,42.00
2018-01-25T13:56:57.398Z,41.70
2018-01-25T13:59:24.930Z,42.00
2018-01-25T14:01:52.473Z,42.20
2018-01-25T14:04:19.962Z,42.30
2018-01-25T14:06:47.488Z,42.70
2018-01-25T14:09:15.000Z,42.40
2018-01-25T14:11:42.522Z,42.60
2018-01-25T14:14:10.033Z,43.60
2018-01-25T14:16:38.356Z,43.80
2018-01-25T14:19:05.858Z,43.80
2018-01-25T14:21:33.375Z,45.00
2018-01-25T14:24:00.858Z,44.30
2018-01-25T14:26:28.398Z,43.60
2018-01-25T14:28:55.968Z,44.20
2018-01-25T14:31:23.465Z,43.90
2018-01-25T14:33:51.036Z,44.60
2018-01-25T14:36:18.486Z,45.80
2018-01-25T14:38:46.298Z,46.20
2018-01-25T14:41:13.804Z,46.40
2018-01-25T14:43:41.337Z,46.50
2018-01-25T14:46:09.049Z,47.00
2018-01-25T14:48:36.540Z,47.70
2018-01-25T14:51:04.030Z,49.50
2018-01-25T14:53:32.325Z,50.60
2018-01-25T14:55:59.838Z,50.40
2018-01-25T14:58:27.335Z,50.60
2018-01-25T15:00:55.638Z,50.30
2018-01-25T15:03:23.147Z,50.20
2018-01-25T15:05:50.682Z,50.10
2018-01-25T15:08:18.207Z,51.40
2018-01-25T15:10:46.060Z,50.90
2018-01-25T15:13:14.042Z,51.50
2018-01-25T15:15:41.793Z,51.60
2018-01-25T15:18:09.530Z,51.40
2018-01-25T15:20:37.315Z,52.10
2018-01-25T15:23:04.834Z,52.30
2018-01-25T15:25:38.283Z,52.00
2018-01-25T15:28:05.795Z,52.40
2018-01-25T15:30:33.305Z,52.60
2018-01-25T15:33:01.560Z,53.00
2018-01-25T15:35:29.655Z,52.80
2018-01-25T15:37:57.393Z,53.40
2018-01-25T15:40:25.333Z,54.10
2018-01-25T15:42:52.930Z,54.50
2018-01-25T15:45:20.611Z,54.50
2018-01-25T15:47:48.122Z,55.60
2018-01-25T15:50:16.428Z,56.30
2018-01-25T15:52:43.982Z,56.30
2018-01-25T15:55:11.728Z,56.60
2018-01-25T15:57:39.266Z,56.90
2018-01-25T16:00:06.794Z,57.00
2018-01-25T16:02:34.514Z,57.90
2018-01-25T16:05:02.017Z,58.80
2018-01-25T16:07:29.958Z,58.90
2018-01-25T16:09:58.196Z,59.40
2018-01-25T16:12:25.706Z,60.10
2018-01-25T16:14:53.454Z,60.60
2018-01-25T16:17:21.235Z,61.70
2018-01-25T16:19:48.847Z,62.10
2018-01-25T16:22:16.721Z,62.70
2018-01-25T16:24:44.739Z,63.30
2018-01-25T16:27:12.255Z,63.40
2018-01-25T16:29:40.057Z,64.00
2018-01-25T16:32:07.682Z,64.90
2018-01-25T16:34:35.243Z,65.30
2018-01-25T16:37:02.793Z,65.70
2018-01-25T16:39:31.086Z,66.20
2018-01-25T16:41:59.695Z,66.30
2018-01-25T16:44:27.466Z,66.30
2018-01-25T16:46:54.973Z,66.40
2018-01-25T16:49:22.544Z,66.90
2018-01-25T16:51:50.837Z,67.30
2018-01-25T16:54:18.561Z,67.30
2018-01-25T16:56:46.111Z,67.70
2018-01-25T16:59:14.200Z,68.30
2018-01-25T17:01:42.516Z,68.60
2018-01-25T17:04:10.053Z,68.60
2018-01-25T17:06:37.584Z,69.00
2018-01-25T17:09:05.159Z,69.50
2018-01-25T17:11:36.323Z,69.90
2018-01-25T17:14:03.890Z,72.00
2018-01-25T17:16:31.652Z,73.90
2018-01-25T17:18:59.226Z,74.30
2018-01-25T17:21:26.886Z,75.60
2018-01-25T17:23:54.388Z,75.80
2018-01-25T17:26:22.924Z,75.80
2018-01-25T17:28:50.432Z,75.80
2018-01-25T17:31:18.215Z,75.80
2018-01-25T17:33:46.949Z,76.10
2018-01-25T17:36:14.664Z,76.00
2018-01-25T17:38:42.482Z,76.50
2018-01-25T17:41:10.071Z,76.60
2018-01-25T17:43:37.627Z,77.50
2018-01-25T17:46:05.140Z,77.60
2018-01-25T17:48:32.682Z,76.50
2018-01-25T17:51:00.252Z,76.90
2018-01-25T17:53:27.767Z,77.00
2018-01-25T17:55:55.378Z,77.10
2018-01-25T17:58:22.904Z,78.60
2018-01-25T18:00:50.498Z,78.50
2018-01-25T18:03:18.115Z,79.00
2018-01-25T18:05:45.943Z,80.80
2018-01-25T18:08:13.493Z,81.70
2018-01-25T18:10:41.013Z,81.60
2018-01-25T18:13:08.729Z,81.30
2018-01-25T18:15:36.259Z,81.60
2018-01-25T18:18:03.747Z,81.90
2018-01-25T18:20:31.280Z,81.50
2018-01-25T18:22:59.555Z,81.30
2018-01-25T18:25:28.594Z,81.20
2018-01-25T18:27:56.082Z,81.60
2018-01-25T18:30:23.616Z,81.70
2018-01-25T18:32:51.889Z,81.80
2018-01-25T18:35:19.438Z,81.80
2018-01-25T18:37:46.930Z,82.10
2018-01-25T18:40:15.252Z,83.00
2018-01-25T18:42:42.739Z,83.00
2018-01-25T18:45:11.038Z,83.70
2018-01-25T18:47:38.806Z,82.70
2018-01-25T18:50:06.319Z,81.90
2018-01-25T18:52:34.023Z,82.10
2018-01-25T18:55:01.836Z,82.10
2018-01-25T18:57:29.380Z,82.30
2018-01-25T18:59:56.871Z,82.60
2018-01-25T19:02:24.413Z,83.10
2018-01-25T19:04:51.907Z,82.70
2018-01-25T19:07:20.213Z,83.50
2018-01-25T19:09:47.707Z,83.50
2018-01-25T19:12:15.230Z,83.90
2018-01-25T19:14:43.470Z,84.30
2018-01-25T19:17:10.999Z,84.40
2018-01-25T19:19:38.513Z,84.20
2018-01-25T19:22:06.072Z,84.00
2018-01-25T19:24:33.570Z,83.90
2018-01-25T19:27:01.089Z,83.90
2018-01-25T19:29:28.673Z,83.70
2018-01-25T19:31:56.197Z,83.70
2018-01-25T19:34:24.500Z,84.10
2018-01-25T19:36:52.038Z,84.10
2018-01-25T19:39:19.568Z,84.10
2018-01-25T19:41:47.890Z,84.10
2018-01-25T19:44:15.493Z,84.20
2018-01-25T19:46:43.114Z,83.90
2018-01-25T19:49:10.648Z,84.00
2018-01-25T19:51:38.176Z,84.00
2018-01-25T19:54:05.699Z,84.50
2018-01-25T19:56:33.256Z,84.10
2018-01-25T19:59:00.816Z,84.30
2018-01-25T20:01:28.354Z,84.80
2018-01-25T20:03:55.930Z,85.10
2018-01-25T20:06:23.497Z,85.10
2018-01-25T20:08:51.058Z,85.10
2018-01-25T20:11:18.735Z,85.50
2018-01-25T20:13:46.331Z,85.50
2018-01-25T20:16:14.663Z,85.60
2018-01-25T20:18:43.756Z,85.50
2018-01-25T20:21:11.304Z,85.20
2018-01-25T20:23:38.860Z,85.60
2018-01-25T20:26:06.392Z,86.00
2018-01-25T20:28:33.901Z,86.30
2018-01-25T20:31:01.450Z,86.10
2018-01-25T20:33:28.942Z,86.30
2018-01-25T20:35:56.480Z,86.60
2018-01-25T20:38:24.026Z,87.00
2018-01-25T20:40:51.565Z,86.90
2018-01-25T20:43:19.088Z,87.00
2018-01-25T20:45:46.627Z,87.00
2018-01-25T20:48:14.231Z,87.00
2018-01-25T20:50:41.822Z,87.10
2018-01-25T20:53:09.335Z,87.00
2018-01-25T20:55:36.850Z,87.00
2018-01-25T20:58:04.377Z,86.90
2018-01-25T21:00:31.901Z,87.10
2018-01-25T21:02:59.438Z,87.30
2018-01-25T21:05:26.926Z,87.60
2018-01-25T21:07:55.336Z,88.00
2018-01-25T21:10:22.830Z,88.00
2018-01-25T21:12:51.330Z,87.90
2018-01-25T21:15:18.819Z,87.90
2018-01-25T21:17:46.397Z,88.40
2018-01-25T21:20:13.892Z,87.70
2018-01-25T21:22:41.415Z,87.50
2018-01-25T21:25:09.049Z,87.50
2018-01-25T21:27:36.541Z,87.30
2018-01-25T21:30:04.060Z,87.10
2018-01-25T21:32:31.565Z,87.00
2018-01-25T21:34:59.094Z,86.90
2018-01-25T21:37:27.717Z,86.70
2018-01-25T21:39:55.226Z,86.30
2018-01-25T21:42:22.781Z,86.20
2018-01-25T21:44:50.322Z,86.00
2018-01-25T21:47:17.830Z,86.10
2018-01-25T21:49:45.362Z,86.10
2018-01-25T21:52:13.138Z,86.10
2018-01-25T21:54:40.624Z,86.10
2018-01-25T21:57:08.145Z,86.20
2018-01-25T21:59:35.659Z,85.80
2018-01-25T22:02:03.169Z,85.50
2018-01-25T22:04:30.672Z,85.20
2018-01-25T22:06:58.952Z,85.20
2018-01-25T22:09:26.443Z,85.20
2018-01-25T22:11:53.968Z,84.70
2018-01-25T22:14:21.456Z,84.40
2018-01-25T22:16:48.973Z,83.80
2018-01-25T22:19:16.519Z,83.20
2018-01-25T22:21:44.048Z,82.50
2018-01-25T22:24:11.570Z,82.50
2018-01-25T22:26:39.272Z,82.30
2018-01-25T22:29:07.079Z,81.00
2018-01-25T22:31:34.978Z,80.70
2018-01-25T22:34:02.467Z,80.90
2018-01-25T22:36:29.982Z,80.40
2018-01-25T22:38:58.273Z,80.70
2018-01-25T22:41:25.777Z,80.70
2018-01-25T22:43:53.298Z,80.90
2018-01-25T22:46:20.828Z,80.40
2018-01-25T22:48:48.309Z,80.50
2018-01-25T22:51:15.860Z,80.70
2018-01-25T22:53:43.362Z,79.70
2018-01-25T22:56:10.869Z,79.80
2018-01-25T22:58:39.165Z,80.10
2018-01-25T23:01:06.675Z,80.10
2018-01-25T23:03:34.192Z,80.30
2018-01-25T23:06:01.666Z,80.40
2018-01-25T23:08:29.197Z,80.70
2018-01-25T23:10:56.710Z,80.70
2018-01-25T23:13:24.223Z,80.40
2018-01-25T23:15:51.739Z,81.60
2018-01-25T23:18:19.266Z,80.70
2018-01-25T23:20:46.808Z,80.80
2018-01-25T23:23:14.307Z,80.70
2018-01-25T23:25:41.821Z,80.80
2018-01-25T23:28:09.457Z,80.80
2018-01-25T23:30:37.011Z,81.00
2018-01-25T23:33:05.261Z,80.90
2018-01-25T23:35:33.692Z,80.80
2018-01-25T23:38:01.188Z,81.20
2018-01-25T23:40:28.784Z,80.80
2018-01-25T23:42:56.254Z,80.70
2018-01-25T23:45:23.905Z,80.90
2018-01-25T23:47:51.430Z,80.90
2018-01-25T23:50:18.936Z,80.80
2018-01-25T23:52:46.457Z,80.30
2018-01-25T23:55:13.979Z,80.30
2018-01-25T23:57:41.472Z,80.20
